createdAt,value
2022-09-17T00:01:25.076Z,95.50
2022-09-17T00:03:55.565Z,95.50
2022-09-17T00:06:24.579Z,95.50
2022-09-17T00:08:53.360Z,95.50
2022-09-17T00:11:23.433Z,95.50
2022-09-17T00:13:53.866Z,95.50
2022-09-17T00:16:27.514Z,95.60
2022-09-17T00:18:55.356Z,95.50
2022-09-17T00:21:23.816Z,95.60
2022-09-17T00:23:54.903Z,95.60
2022-09-17T00:26:22.801Z,95.60
2022-09-17T00:28:53.082Z,95.60
2022-09-17T00:31:21.027Z,95.60
2022-09-17T00:33:48.979Z,95.60
2022-09-17T00:36:17.135Z,95.70
2022-09-17T00:38:44.824Z,95.70
2022-09-17T00:41:12.551Z,95.70
2022-09-17T00:43:43.470Z,95.70
2022-09-17T00:46:25.323Z,95.70
2022-09-17T00:48:54.643Z,95.70
2022-09-17T00:51:27.604Z,95.70
2022-09-17T00:53:56.784Z,95.70
2022-09-17T00:56:27.678Z,95.70
2022-09-17T00:58:56.487Z,95.80
2022-09-17T01:01:25.615Z,96.20
2022-09-17T01:03:53.369Z,96.30
2022-09-17T01:06:26.890Z,95.80
2022-09-17T01:09:08.268Z,95.80
2022-09-17T01:11:51.785Z,95.80
2022-09-17T01:14:33.723Z,95.80
2022-09-17T01:17:14.808Z,96.30
2022-09-17T01:20:16.544Z,95.90
2022-09-17T01:22:58.105Z,96.40
2022-09-17T01:25:31.123Z,96.00
2022-09-17T01:28:21.821Z,96.40
2022-09-17T01:31:04.390Z,96.50
2022-09-17T01:33:41.754Z,96.50
2022-09-17T01:36:22.450Z,96.50
2022-09-17T01:39:00.078Z,96.50
2022-09-17T01:41:35.249Z,96.50
2022-09-17T01:44:08.669Z,96.60
2022-09-17T01:46:42.645Z,96.60
2022-09-17T01:49:11.762Z,96.60
2022-09-17T01:51:44.703Z,96.70
2022-09-17T01:54:17.638Z,97.00
2022-09-17T01:56:50.740Z,96.70
2022-09-17T01:59:23.646Z,96.70
2022-09-17T02:01:57.782Z,96.70
2022-09-17T02:04:30.048Z,96.70
2022-09-17T02:07:01.413Z,96.80
2022-09-17T02:09:32.847Z,97.20
2022-09-17T02:12:05.705Z,96.80
2022-09-17T02:14:40.711Z,96.40
2022-09-17T02:17:15.573Z,96.40
2022-09-17T02:19:45.692Z,96.40
2022-09-17T02:22:22.230Z,96.40
2022-09-17T02:25:00.686Z,96.60
2022-09-17T02:27:38.036Z,96.50
2022-09-17T02:30:07.700Z,96.90
2022-09-17T02:32:36.755Z,96.50
2022-09-17T02:35:04.960Z,96.50
2022-09-17T02:37:33.010Z,96.50
2022-09-17T02:40:00.917Z,96.50
2022-09-17T02:42:38.707Z,96.50
2022-09-17T02:45:16.355Z,96.50
2022-09-17T02:48:07.816Z,96.60
2022-09-17T02:50:47.207Z,96.60
2022-09-17T02:53:28.661Z,96.90
2022-09-17T02:56:03.797Z,96.60
2022-09-17T02:58:35.253Z,96.60
2022-09-17T03:01:08.075Z,96.60
2022-09-17T03:03:42.313Z,96.60
2022-09-17T03:06:10.222Z,96.70
2022-09-17T03:08:41.276Z,96.60
2022-09-17T03:11:09.926Z,96.60
2022-09-17T03:13:37.674Z,96.70
2022-09-17T03:16:05.872Z,96.60
2022-09-17T03:18:34.019Z,96.60
2022-09-17T03:21:03.088Z,96.60
2022-09-17T03:23:30.794Z,96.70
2022-09-17T03:25:58.546Z,96.70
2022-09-17T03:28:26.713Z,96.60
2022-09-17T03:30:55.002Z,96.70
2022-09-17T03:33:23.054Z,96.70
2022-09-17T03:35:51.148Z,96.70
2022-09-17T03:38:21.825Z,96.70
2022-09-17T03:40:58.921Z,96.80
2022-09-17T03:43:26.814Z,96.70
2022-09-17T03:45:54.564Z,96.80
2022-09-17T03:48:22.279Z,96.80
2022-09-17T03:50:50.239Z,96.80
2022-09-17T03:53:18.140Z,96.80
2022-09-17T03:55:47.177Z,96.80
2022-09-17T03:58:14.882Z,96.80
2022-09-17T04:00:43.461Z,96.80
2022-09-17T04:03:11.173Z,97.30
2022-09-17T04:05:38.873Z,97.30
2022-09-17T04:08:06.589Z,97.40
2022-09-17T04:10:34.270Z,97.40
2022-09-17T04:13:03.310Z,97.40
2022-09-17T04:15:31.022Z,96.90
2022-09-17T04:17:59.265Z,97.40
2022-09-17T04:20:27.494Z,97.40
2022-09-17T04:22:55.763Z,97.00
2022-09-17T04:25:23.578Z,97.00
2022-09-17T04:27:51.335Z,97.00
2022-09-17T04:30:20.442Z,97.00
2022-09-17T04:32:48.173Z,97.00
2022-09-17T04:35:15.978Z,97.00
2022-09-17T04:37:43.704Z,97.10
2022-09-17T04:40:12.185Z,97.00
2022-09-17T04:42:39.912Z,97.00
2022-09-17T04:45:08.314Z,97.00
2022-09-17T04:47:39.544Z,97.00
2022-09-17T04:50:08.429Z,97.00
2022-09-17T04:52:36.138Z,97.00
2022-09-17T04:55:04.382Z,97.10
2022-09-17T04:57:32.060Z,97.10
2022-09-17T04:59:59.759Z,97.10
2022-09-17T05:02:27.505Z,97.10
2022-09-17T05:04:56.971Z,97.10
2022-09-17T05:07:24.752Z,97.10
2022-09-17T05:09:53.281Z,97.10
2022-09-17T05:12:20.990Z,97.10
2022-09-17T05:14:48.718Z,97.10
2022-09-17T05:17:16.437Z,97.20
2022-09-17T05:19:44.222Z,97.60
2022-09-17T05:22:13.241Z,97.60
2022-09-17T05:24:40.913Z,97.60
2022-09-17T05:27:10.102Z,97.60
2022-09-17T05:29:37.937Z,97.60
2022-09-17T05:32:06.389Z,97.70
2022-09-17T05:34:34.602Z,97.70
2022-09-17T05:37:02.322Z,97.70
2022-09-17T05:39:31.345Z,97.70
2022-09-17T05:42:00.074Z,97.70
2022-09-17T05:44:27.766Z,97.70
2022-09-17T05:46:55.536Z,97.70
2022-09-17T05:49:23.255Z,97.70
2022-09-17T05:51:51.795Z,97.70
2022-09-17T05:54:19.605Z,97.30
2022-09-17T05:56:48.684Z,97.70
2022-09-17T05:59:16.423Z,97.70
2022-09-17T06:01:44.154Z,97.20
2022-09-17T06:04:12.839Z,97.30
2022-09-17T06:06:41.557Z,97.30
2022-09-17T06:09:09.949Z,97.70
2022-09-17T06:11:38.271Z,97.30
2022-09-17T06:14:07.373Z,97.80
2022-09-17T06:16:35.121Z,97.80
2022-09-17T06:19:04.047Z,97.80
2022-09-17T06:21:31.761Z,97.50
2022-09-17T06:23:59.716Z,97.40
2022-09-17T06:26:27.391Z,97.40
2022-09-17T06:28:55.089Z,97.50
2022-09-17T06:31:24.135Z,97.40
2022-09-17T06:33:51.842Z,97.40
2022-09-17T06:36:19.552Z,97.40
2022-09-17T06:38:47.262Z,97.40
2022-09-17T06:41:16.823Z,97.50
2022-09-17T06:43:45.015Z,97.50
2022-09-17T06:46:12.954Z,97.30
2022-09-17T06:48:42.078Z,97.30
2022-09-17T06:51:11.816Z,97.40
2022-09-17T06:53:40.299Z,97.30
2022-09-17T06:56:09.336Z,97.40
2022-09-17T06:58:37.988Z,97.30
2022-09-17T07:01:06.401Z,97.20
2022-09-17T07:03:35.145Z,97.20
2022-09-17T07:06:04.588Z,97.30
2022-09-17T07:08:34.312Z,97.30
2022-09-17T07:11:02.221Z,97.20
2022-09-17T07:13:29.944Z,97.20
2022-09-17T07:15:59.083Z,97.20
2022-09-17T07:18:27.903Z,97.50
2022-09-17T07:20:56.447Z,97.20
2022-09-17T07:23:27.583Z,97.20
2022-09-17T07:25:56.326Z,97.20
2022-09-17T07:28:24.452Z,97.20
2022-09-17T07:30:53.288Z,97.30
2022-09-17T07:33:24.367Z,97.30
2022-09-17T07:35:56.061Z,97.30
2022-09-17T07:38:26.571Z,97.30
2022-09-17T07:40:57.957Z,97.30
2022-09-17T07:43:26.519Z,97.20
2022-09-17T07:45:54.844Z,97.20
2022-09-17T07:48:22.758Z,97.20
2022-09-17T07:50:50.536Z,97.20
2022-09-17T07:53:18.377Z,97.20
2022-09-17T07:55:54.364Z,97.30
2022-09-17T07:58:23.000Z,97.30
2022-09-17T08:00:50.818Z,97.30
2022-09-17T08:03:18.533Z,97.20
2022-09-17T08:05:46.403Z,97.20
2022-09-17T08:08:17.662Z,97.10
2022-09-17T08:10:48.170Z,97.10
2022-09-17T08:13:17.257Z,97.00
2022-09-17T08:15:45.029Z,96.90
2022-09-17T08:18:12.793Z,96.90
2022-09-17T08:20:40.909Z,96.70
2022-09-17T08:23:08.608Z,96.70
2022-09-17T08:25:36.297Z,96.70
2022-09-17T08:28:04.213Z,96.60
2022-09-17T08:30:33.218Z,96.60
2022-09-17T08:33:00.910Z,96.60
2022-09-17T08:35:28.620Z,96.60
2022-09-17T08:37:56.678Z,96.70
2022-09-17T08:40:24.527Z,96.60
2022-09-17T08:42:57.641Z,96.60
2022-09-17T08:45:26.322Z,96.50
2022-09-17T08:48:01.988Z,96.50
2022-09-17T08:50:33.658Z,96.40
2022-09-17T08:53:23.407Z,96.30
2022-09-17T08:55:59.760Z,96.30
2022-09-17T08:58:54.701Z,96.10
2022-09-17T09:01:32.269Z,96.00
2022-09-17T09:04:26.785Z,95.90
2022-09-17T09:06:59.287Z,95.70
2022-09-17T09:09:32.562Z,95.80
2022-09-17T09:12:05.709Z,95.80
2022-09-17T09:14:40.329Z,95.70
2022-09-17T09:17:10.900Z,95.50
2022-09-17T09:19:44.938Z,95.80
2022-09-17T09:22:31.175Z,95.40
2022-09-17T09:25:09.351Z,95.40
2022-09-17T09:27:45.057Z,95.60
2022-09-17T09:30:14.742Z,95.20
2022-09-17T09:32:52.549Z,95.20
2022-09-17T09:35:23.500Z,95.00
2022-09-17T09:37:58.573Z,94.90
2022-09-17T09:40:37.146Z,94.70
2022-09-17T09:43:13.527Z,94.80
2022-09-17T09:46:05.957Z,94.80
2022-09-17T09:48:42.499Z,94.80
2022-09-17T09:51:21.087Z,94.80
2022-09-17T09:54:02.665Z,94.90
2022-09-17T09:56:47.002Z,94.70
2022-09-17T09:59:15.044Z,94.70
2022-09-17T10:01:45.119Z,94.50
2022-09-17T10:04:19.068Z,94.50
2022-09-17T10:06:50.317Z,94.70
2022-09-17T10:09:21.436Z,94.80
2022-09-17T10:12:04.038Z,94.50
2022-09-17T10:14:33.402Z,95.00
2022-09-17T10:17:20.615Z,94.50
2022-09-17T10:20:10.287Z,94.20
2022-09-17T10:22:42.400Z,94.20
2022-09-17T10:25:28.330Z,94.00
2022-09-17T10:27:57.333Z,94.30
2022-09-17T10:30:25.897Z,94.20
2022-09-17T10:33:20.690Z,93.80
2022-09-17T10:36:01.161Z,93.40
2022-09-17T10:38:36.358Z,93.60
2022-09-17T10:41:18.650Z,93.70
2022-09-17T10:43:46.991Z,93.70
2022-09-17T10:46:25.198Z,93.60
2022-09-17T10:49:06.250Z,93.60
2022-09-17T10:51:34.061Z,93.30
2022-09-17T10:54:45.457Z,93.20
2022-09-17T10:57:21.827Z,93.40
2022-09-17T11:00:05.188Z,93.50
2022-09-17T11:03:00.615Z,93.70
2022-09-17T11:05:46.076Z,93.40
2022-09-17T11:08:21.273Z,93.40
2022-09-17T11:10:59.278Z,93.10
2022-09-17T11:13:37.825Z,93.20
2022-09-17T11:16:16.328Z,93.20
2022-09-17T11:18:45.507Z,93.00
2022-09-17T11:21:29.500Z,93.00
2022-09-17T11:24:30.687Z,92.70
2022-09-17T11:27:09.571Z,92.60
2022-09-17T11:29:54.754Z,92.40
2022-09-17T11:32:35.778Z,91.90
2022-09-17T11:35:09.754Z,92.00
2022-09-17T11:37:41.150Z,92.20
2022-09-17T11:40:16.697Z,92.40
2022-09-17T11:42:49.383Z,92.30
2022-09-17T11:45:21.167Z,91.80
2022-09-17T11:47:54.202Z,91.80
2022-09-17T11:50:26.786Z,91.60
2022-09-17T11:53:05.599Z,91.50
2022-09-17T11:55:40.814Z,91.40
2022-09-17T11:58:15.762Z,91.70
2022-09-17T12:00:50.295Z,91.80
2022-09-17T12:03:24.576Z,91.90
2022-09-17T12:05:56.198Z,92.00
2022-09-17T12:08:28.686Z,92.20
2022-09-17T12:11:01.971Z,92.20
2022-09-17T12:13:37.400Z,92.00
2022-09-17T12:16:14.442Z,92.30
2022-09-17T12:19:01.934Z,91.90
2022-09-17T12:21:36.188Z,91.20
2022-09-17T12:24:12.810Z,90.40
2022-09-17T12:26:59.695Z,89.30
2022-09-17T12:29:56.000Z,90.00
2022-09-17T12:32:47.974Z,90.40
2022-09-17T12:38:58.413Z,91.40
2022-09-17T12:41:37.524Z,91.50
2022-09-17T12:44:25.450Z,91.70
2022-09-17T12:47:10.122Z,92.10
2022-09-17T12:50:02.410Z,91.90
2022-09-17T12:52:39.475Z,91.90
2022-09-17T12:55:32.099Z,92.00
2022-09-17T12:58:09.065Z,92.10
2022-09-17T13:00:41.483Z,91.90
2022-09-17T13:03:22.279Z,91.80
2022-09-17T13:06:24.625Z,91.80
2022-09-17T13:09:06.063Z,91.80
2022-09-17T13:12:04.559Z,91.50
2022-09-17T13:14:49.197Z,91.50
2022-09-17T13:17:25.701Z,91.70
2022-09-17T13:20:03.516Z,91.60
2022-09-17T13:22:33.529Z,91.70
2022-09-17T13:25:07.249Z,91.90
2022-09-17T13:27:38.141Z,91.90
2022-09-17T13:30:07.368Z,92.10
2022-09-17T13:32:52.281Z,92.10
2022-09-17T13:35:52.389Z,92.20
2022-09-17T13:38:23.887Z,92.40
2022-09-17T13:40:53.154Z,92.50
2022-09-17T13:43:26.509Z,92.50
2022-09-17T13:46:16.924Z,92.50
2022-09-17T13:48:58.672Z,92.40
2022-09-17T13:52:00.762Z,92.30
2022-09-17T13:54:39.575Z,92.10
2022-09-17T13:57:14.857Z,92.00
2022-09-17T13:59:55.126Z,92.00
2022-09-17T14:02:37.139Z,92.10
2022-09-17T14:05:38.043Z,92.00
2022-09-17T14:08:30.888Z,91.90
2022-09-17T14:11:01.074Z,91.90
2022-09-17T14:13:45.847Z,92.00
2022-09-17T14:16:46.758Z,92.00
2022-09-17T14:19:37.763Z,91.60
2022-09-17T14:22:15.901Z,91.50
2022-09-17T14:24:55.449Z,91.80
2022-09-17T14:27:42.785Z,91.70
2022-09-17T14:30:16.587Z,91.60
2022-09-17T14:32:52.679Z,91.60
2022-09-17T14:35:25.221Z,91.50
2022-09-17T14:37:57.962Z,90.40
2022-09-17T14:40:28.191Z,90.30
2022-09-17T14:42:58.239Z,89.80
2022-09-17T14:45:30.362Z,90.50
2022-09-17T14:48:30.818Z,90.70
2022-09-17T14:51:29.441Z,91.00
2022-09-17T14:54:21.447Z,91.40
2022-09-17T14:56:56.815Z,91.70
2022-09-17T14:59:48.974Z,91.80
2022-09-17T15:02:38.556Z,92.00
2022-09-17T15:05:46.628Z,92.10
2022-09-17T15:11:43.601Z,92.50
2022-09-17T15:14:19.462Z,92.40
2022-09-17T15:16:49.944Z,92.40
2022-09-17T15:19:24.595Z,92.40
2022-09-17T15:21:56.023Z,92.70
2022-09-17T15:24:35.074Z,92.70
2022-09-17T15:27:07.727Z,92.70
2022-09-17T15:29:38.710Z,92.60
2022-09-17T15:32:07.416Z,92.60
2022-09-17T15:34:35.257Z,92.70
2022-09-17T15:37:07.474Z,92.70
2022-09-17T15:39:41.542Z,92.80
2022-09-17T15:42:20.370Z,92.80
2022-09-17T15:44:49.613Z,92.90
2022-09-17T15:47:37.703Z,92.90
2022-09-17T15:50:14.383Z,92.90
2022-09-17T15:52:42.507Z,93.00
2022-09-17T15:55:30.203Z,93.10
2022-09-17T15:57:58.782Z,93.10
2022-09-17T16:00:28.259Z,93.20
2022-09-17T16:02:56.094Z,93.20
2022-09-17T16:05:47.629Z,93.30
2022-09-17T16:08:21.146Z,93.30
2022-09-17T16:10:48.900Z,93.40
2022-09-17T16:13:16.616Z,93.40
2022-09-17T16:15:45.882Z,93.50
2022-09-17T16:18:14.789Z,93.90
2022-09-17T16:20:42.723Z,93.50
2022-09-17T16:23:11.074Z,93.60
2022-09-17T16:25:40.300Z,93.70
2022-09-17T16:28:13.391Z,93.60
2022-09-17T16:30:45.909Z,93.70
2022-09-17T16:33:15.377Z,93.60
2022-09-17T16:35:44.012Z,93.60
2022-09-17T16:38:12.788Z,93.50
2022-09-17T16:40:45.214Z,93.50
2022-09-17T16:43:13.126Z,93.50
2022-09-17T16:45:40.894Z,93.50
2022-09-17T16:48:10.317Z,93.50
2022-09-17T16:50:41.107Z,93.50
2022-09-17T16:53:08.824Z,93.50
2022-09-17T16:55:37.487Z,93.40
2022-09-17T16:58:05.321Z,93.40
2022-09-17T17:00:33.080Z,93.40
2022-09-17T17:03:00.943Z,93.40
2022-09-17T17:05:30.018Z,93.30
2022-09-17T17:07:59.182Z,93.30
2022-09-17T17:10:28.950Z,93.30
2022-09-17T17:12:57.797Z,93.30
2022-09-17T17:15:25.773Z,93.30
2022-09-17T17:17:53.846Z,93.30
2022-09-17T17:20:21.590Z,93.20
2022-09-17T17:22:51.650Z,93.20
2022-09-17T17:25:19.490Z,93.30
2022-09-17T17:27:47.199Z,93.20
2022-09-17T17:30:17.199Z,93.20
2022-09-17T17:32:46.144Z,93.20
2022-09-17T17:35:13.866Z,93.30
2022-09-17T17:37:41.571Z,93.30
2022-09-17T17:40:11.562Z,93.30
2022-09-17T17:42:43.627Z,93.40
2022-09-17T17:45:12.208Z,93.30
2022-09-17T17:47:39.954Z,93.30
2022-09-17T17:50:10.432Z,93.30
2022-09-17T17:52:40.208Z,93.30
2022-09-17T17:55:10.288Z,93.30
2022-09-17T17:57:38.374Z,93.40
2022-09-17T18:00:07.355Z,93.40
2022-09-17T18:02:35.318Z,93.40
2022-09-17T18:05:04.478Z,93.50
2022-09-17T18:07:32.526Z,93.40
2022-09-17T18:10:00.354Z,93.50
2022-09-17T18:12:29.528Z,93.60
2022-09-17T18:14:57.208Z,93.60
2022-09-17T18:17:24.982Z,93.60
2022-09-17T18:19:52.672Z,93.60
2022-09-17T18:22:20.393Z,93.60
2022-09-17T18:24:48.123Z,93.60
2022-09-17T18:27:16.162Z,93.70
2022-09-17T18:29:45.256Z,93.70
2022-09-17T18:32:12.975Z,93.70
2022-09-17T18:34:42.324Z,93.70
2022-09-17T18:37:10.858Z,93.80
2022-09-17T18:39:57.934Z,93.80
2022-09-17T18:42:26.327Z,93.80
2022-09-17T18:44:55.389Z,93.90
2022-09-17T18:47:23.128Z,93.90
2022-09-17T18:49:50.809Z,93.90
2022-09-17T18:52:19.137Z,93.90
2022-09-17T18:54:46.934Z,94.00
2022-09-17T18:57:15.006Z,94.00
2022-09-17T18:59:42.783Z,94.00
2022-09-17T19:02:13.370Z,94.10
2022-09-17T19:04:41.111Z,94.10
2022-09-17T19:07:08.851Z,94.10
2022-09-17T19:09:36.566Z,94.20
2022-09-17T19:12:04.529Z,94.20
2022-09-17T19:14:32.410Z,94.30
2022-09-17T19:17:00.177Z,94.30
2022-09-17T19:19:29.234Z,94.30
2022-09-17T19:21:56.984Z,94.30
2022-09-17T19:24:24.772Z,94.30
2022-09-17T19:26:53.382Z,94.30
2022-09-17T19:29:21.099Z,94.30
2022-09-17T19:31:48.983Z,94.40
2022-09-17T19:34:16.750Z,94.40
2022-09-17T19:36:45.917Z,94.40
2022-09-17T19:39:13.828Z,94.40
2022-09-17T19:41:41.517Z,94.40
2022-09-17T19:44:09.838Z,94.40
2022-09-17T19:46:37.611Z,94.50
2022-09-17T19:49:05.408Z,94.40
2022-09-17T19:51:33.779Z,94.50
2022-09-17T19:54:02.824Z,94.40
2022-09-17T19:56:30.605Z,94.50
2022-09-17T19:58:58.350Z,94.50
2022-09-17T20:01:26.299Z,94.50
2022-09-17T20:03:54.125Z,94.60
2022-09-17T20:06:23.311Z,94.50
2022-09-17T20:08:52.426Z,94.60
2022-09-17T20:11:23.530Z,94.60
2022-09-17T20:13:51.573Z,94.60
2022-09-17T20:16:21.182Z,94.60
2022-09-17T20:18:49.855Z,94.60
2022-09-17T20:21:19.509Z,94.60
2022-09-17T20:23:47.359Z,94.60
2022-09-17T20:26:16.403Z,94.60
2022-09-17T20:28:45.695Z,94.50
2022-09-17T20:31:16.557Z,94.60
2022-09-17T20:33:44.682Z,94.60
2022-09-17T20:36:15.828Z,94.60
2022-09-17T20:39:10.740Z,94.60
2022-09-17T20:41:32.529Z,94.60
2022-09-17T20:44:01.747Z,94.60
2022-09-17T20:46:29.938Z,94.60
2022-09-17T20:48:58.661Z,94.60
2022-09-17T20:51:28.325Z,94.60
2022-09-17T20:53:56.952Z,94.50
2022-09-17T20:56:27.082Z,94.60
2022-09-17T20:59:02.821Z,94.60
2022-09-17T21:01:34.404Z,94.50
2022-09-17T21:04:03.840Z,94.50
2022-09-17T21:06:32.964Z,94.50
2022-09-17T21:09:01.297Z,94.50
2022-09-17T21:11:30.817Z,94.40
2022-09-17T21:13:59.856Z,94.40
2022-09-17T21:16:28.075Z,94.40
2022-09-17T21:18:58.949Z,94.40
2022-09-17T21:21:27.189Z,94.40
2022-09-17T21:23:55.185Z,94.40
2022-09-17T21:26:24.790Z,94.40
2022-09-17T21:28:55.039Z,94.40
2022-09-17T21:31:28.392Z,94.40
2022-09-17T21:34:01.999Z,94.40
2022-09-17T21:36:31.866Z,94.80
2022-09-17T21:39:01.769Z,94.40
2022-09-17T21:41:30.104Z,94.50
2022-09-17T21:43:58.669Z,94.50
2022-09-17T21:46:28.021Z,94.50
2022-09-17T21:48:57.994Z,94.50
2022-09-17T21:51:30.445Z,94.60
2022-09-17T21:54:00.446Z,94.60
2022-09-17T21:56:31.103Z,94.70
2022-09-17T21:59:00.071Z,94.70
2022-09-17T22:01:31.035Z,94.80
2022-09-17T22:03:59.309Z,94.80
2022-09-17T22:06:29.990Z,94.80
2022-09-17T22:08:59.924Z,94.80
2022-09-17T22:11:29.816Z,94.90
2022-09-17T22:14:00.616Z,94.90
2022-09-17T22:16:30.644Z,94.90
2022-09-17T22:18:59.513Z,94.90
2022-09-17T22:21:31.132Z,95.00
2022-09-17T22:24:00.661Z,95.00
2022-09-17T22:26:30.435Z,95.00
2022-09-17T22:29:02.880Z,95.10
2022-09-17T22:31:30.709Z,95.10
2022-09-17T22:33:58.655Z,95.10
2022-09-17T22:36:28.926Z,95.10
2022-09-17T22:38:58.214Z,95.20
2022-09-17T22:41:27.563Z,95.20
2022-09-17T22:43:56.817Z,95.10
2022-09-17T22:46:26.750Z,95.20
2022-09-17T22:48:55.117Z,95.20
2022-09-17T22:51:23.202Z,95.20
2022-09-17T22:53:52.339Z,95.20
2022-09-17T22:56:23.152Z,95.20
2022-09-17T22:58:51.067Z,95.30
2022-09-17T23:01:20.638Z,95.40
2022-09-17T23:03:49.562Z,95.40
2022-09-17T23:06:19.854Z,95.40
2022-09-17T23:08:48.074Z,95.40
2022-09-17T23:11:19.748Z,95.40
2022-09-17T23:13:48.049Z,95.60
2022-09-17T23:16:16.312Z,95.50
2022-09-17T23:18:44.220Z,95.50
2022-09-17T23:21:14.190Z,95.60
2022-09-17T23:23:43.294Z,95.60
2022-09-17T23:26:14.343Z,95.60
2022-09-17T23:28:43.569Z,95.60
2022-09-17T23:31:13.176Z,95.60
2022-09-17T23:33:41.058Z,95.60
2022-09-17T23:36:12.667Z,95.60
2022-09-17T23:38:41.298Z,95.70
2022-09-17T23:41:14.620Z,95.70
2022-09-17T23:43:46.203Z,95.70
2022-09-17T23:46:14.101Z,95.80
2022-09-17T23:48:41.940Z,95.80
2022-09-17T23:51:09.656Z,95.80
2022-09-17T23:53:38.199Z,95.90
2022-09-17T23:56:12.107Z,95.90
2022-09-17T23:58:39.917Z,96.00
